North Central West Virginia Airport Clarksburg US
ICAO: KCKB
IATA: CKB
Category: Medium
Scheduled Services: Yes

Elevation: 1217 ft
TransAlt. 18000 ft.

Airport Communications:
CLARKSBURG APP/DEP:119.6
ATIS:127.825
CTAF:126.7
GND:121.9
ARNG OPS:139.05
ELKINS RDO:112.6
CLARKSBURG TWR:126.7
UNICOM:123

KCKB Zoom In..

If you have problems with the map follow the link
https://www.worldairports.se/pages/airport.php?
ICAO=KCKB

Runways:

(A) RW 03 length 7800 ft width 150 ft
---- / hdg 31

(B) RW 21 length 7800 ft width 150 ft
ILS 109.30 / hdg 211

Location; KCKB
Day. 24 / Time. 10.53 Zulu
* Altimeter: 30.26
* Temperature: -03° c. -26.6°f.
* Wind from: 000° Speed 00 kn.
Dewpoint: -07° c.
Visibility: 10 Statute Miles.
Clouds: Clear (automated report).

KCKB 241053Z AUTO 00000KT 10SM CLR M03/M07 A3026 RMK AO2 SLP249 T10331072


Wind - Calm.

 
 
jpsmedia.com for Web Design worldairports.se 2019   terms of use